Terminal Aerodrome Forecast
Issued by NWS Albuquerque, NM

Home | Current Version | Previous Version | Text Only | Print | Product List | Glossary On
Versions: 1 2 3 4 5 6 7 8 9 10 11 12 13 14 15 16 17 18 19
553
FTUS45 KABQ 291146
TAFABQ
TAF
KABQ 291146Z 2912/3012 VRB06KT P6SM VCSH SCT010 OVC025
      TEMPO 2912/2915 4SM -RASN OVC015
     FM291500 08013KT 5SM -SN BR BKN015 OVC025
     FM292000 03010KT P6SM VCSH BKN045 OVC080
     FM300200 08010KT P6SM SCT035 BKN050=

USA.gov is the U.S. government's official web portal to all federal, state and local government web resources and services.